Terminal Aerodrome Forecast
Issued by NWS

Home | Current Version | Previous Version | Text Only | Print | Product List | Glossary On
Versions: 1 2 3 4 5 6 7 8 9 10 11 12 13 14
000
FTUS42 TJSJ 271740
TAFJBQ
TAF
TJBQ 271740Z 2718/2818 06015G25KT P6SM VCSH SCT022 BKN040
     FM272000 07027G40KT P6SM VCTS SCT020 BKN050CB
      TEMPO 2802/2806 VRB15G30KT 3SM +TSRA BKN020CB
     FM281400 13020G30KT P6SM VCSH SCT020 BKN030
      AMD NOT SKED 2802/2811=

USA.gov is the U.S. government's official web portal to all federal, state and local government web resources and services.